createdAt,value
2018-09-06T00:00:24.817Z,17.80
2018-09-06T00:02:53.683Z,17.80
2018-09-06T00:05:22.474Z,17.90
2018-09-06T00:07:51.384Z,17.90
2018-09-06T00:10:19.610Z,18.00
2018-09-06T00:12:48.090Z,18.20
2018-09-06T00:15:16.852Z,18.10
2018-09-06T00:17:44.837Z,18.30
2018-09-06T00:20:12.620Z,18.40
2018-09-06T00:22:40.439Z,18.10
2018-09-06T00:27:41.381Z,18.20
2018-09-06T00:30:09.571Z,18.30
2018-09-06T00:32:36.146Z,18.20
2018-09-06T00:35:02.676Z,18.10
2018-09-06T00:37:29.199Z,18.00
2018-09-06T00:39:55.675Z,17.80
2018-09-06T00:42:22.389Z,17.60
2018-09-06T00:44:48.972Z,17.70
2018-09-06T00:47:15.433Z,17.60
2018-09-06T00:49:42.124Z,17.70
2018-09-06T00:52:08.651Z,17.90
2018-09-06T00:54:35.412Z,17.60
2018-09-06T00:57:01.914Z,17.60
2018-09-06T00:59:28.423Z,17.30
2018-09-06T01:01:54.963Z,17.40
2018-09-06T01:04:21.539Z,17.20
2018-09-06T01:06:48.031Z,17.10
2018-09-06T01:09:14.527Z,16.80
2018-09-06T01:11:41.000Z,17.00
2018-09-06T01:14:07.490Z,16.70
2018-09-06T01:16:34.006Z,16.40
2018-09-06T01:19:01.569Z,16.40
2018-09-06T01:21:28.069Z,16.90
2018-09-06T01:23:54.541Z,16.90
2018-09-06T01:26:21.020Z,17.00
2018-09-06T01:28:47.577Z,17.20
2018-09-06T01:31:14.062Z,16.70
2018-09-06T01:33:41.000Z,16.50
2018-09-06T01:36:07.443Z,16.60
2018-09-06T01:38:34.174Z,16.30
2018-09-06T01:43:32.847Z,17.00
2018-09-06T01:45:59.317Z,16.70
2018-09-06T01:48:25.847Z,16.70
2018-09-06T01:50:52.322Z,16.50
2018-09-06T01:53:18.776Z,16.60
2018-09-06T01:55:45.243Z,16.40
2018-09-06T01:58:11.811Z,16.80
2018-09-06T02:00:38.235Z,16.50
2018-09-06T02:03:04.729Z,16.30
2018-09-06T02:05:31.442Z,16.30
2018-09-06T02:07:58.056Z,16.40
2018-09-06T02:10:24.510Z,16.30
2018-09-06T02:12:51.001Z,16.50
2018-09-06T02:15:17.543Z,16.50
2018-09-06T02:17:44.138Z,16.40
2018-09-06T02:20:10.623Z,16.30
2018-09-06T02:22:37.116Z,16.50
2018-09-06T02:25:03.594Z,16.50
2018-09-06T02:27:31.375Z,16.50
2018-09-06T02:29:58.224Z,16.80
2018-09-06T02:32:24.758Z,16.90
2018-09-06T02:34:51.209Z,16.60
2018-09-06T02:37:17.696Z,16.40
2018-09-06T02:39:44.207Z,16.00
2018-09-06T02:42:10.827Z,16.00
2018-09-06T02:44:37.574Z,16.00
2018-09-06T02:47:04.114Z,16.10
2018-09-06T02:49:30.695Z,16.10
2018-09-06T02:51:57.221Z,16.40
2018-09-06T02:54:24.509Z,16.60
2018-09-06T02:56:51.031Z,16.40
2018-09-06T02:59:17.761Z,16.50
2018-09-06T03:01:45.035Z,16.60
2018-09-06T03:04:11.521Z,16.40
2018-09-06T03:06:37.970Z,16.10
2018-09-06T03:09:04.606Z,16.10
2018-09-06T03:11:31.344Z,16.20
2018-09-06T03:13:57.874Z,16.10
2018-09-06T03:16:24.408Z,16.20
2018-09-06T03:18:51.190Z,16.30
2018-09-06T03:21:20.852Z,16.10
2018-09-06T03:23:47.391Z,16.40
2018-09-06T03:26:13.882Z,16.50
2018-09-06T03:28:40.360Z,16.60
2018-09-06T03:31:07.443Z,16.20
2018-09-06T03:33:33.960Z,15.70
2018-09-06T03:36:00.594Z,15.70
2018-09-06T03:38:27.407Z,15.80
2018-09-06T03:40:54.547Z,15.90
2018-09-06T03:43:21.005Z,15.50
2018-09-06T03:45:47.570Z,15.70
2018-09-06T03:48:17.317Z,15.90
2018-09-06T03:50:43.846Z,16.10
2018-09-06T03:53:10.313Z,16.30
2018-09-06T03:55:36.779Z,16.50
2018-09-06T03:58:03.281Z,16.70
2018-09-06T04:00:30.565Z,16.80
2018-09-06T04:02:57.110Z,16.20
2018-09-06T04:05:23.587Z,15.80
2018-09-06T04:07:50.303Z,16.10
2018-09-06T04:10:16.883Z,16.00
2018-09-06T04:12:43.408Z,15.70
2018-09-06T04:17:42.900Z,15.90
2018-09-06T04:20:10.394Z,15.90
2018-09-06T04:22:36.844Z,16.00
2018-09-06T04:25:03.360Z,16.10
2018-09-06T04:27:29.859Z,16.00
2018-09-06T04:29:56.353Z,15.80
2018-09-06T04:32:22.864Z,16.00
2018-09-06T04:34:49.358Z,16.20
2018-09-06T04:37:15.840Z,16.30
2018-09-06T04:39:42.317Z,16.50
2018-09-06T04:42:08.763Z,16.50
2018-09-06T04:44:35.237Z,16.40
2018-09-06T04:47:02.151Z,16.50
2018-09-06T04:49:29.206Z,16.60
2018-09-06T04:51:56.454Z,16.60
2018-09-06T04:54:23.867Z,16.60
2018-09-06T04:56:50.293Z,16.70
2018-09-06T04:59:16.818Z,16.70
2018-09-06T05:01:44.392Z,16.70
2018-09-06T05:04:11.129Z,16.90
2018-09-06T05:06:38.278Z,16.70
2018-09-06T05:09:04.969Z,16.60
2018-09-06T05:11:31.531Z,16.80
2018-09-06T05:13:58.017Z,16.80
2018-09-06T05:16:24.485Z,16.90
2018-09-06T05:18:51.181Z,16.90
2018-09-06T05:21:17.629Z,16.80
2018-09-06T05:23:44.535Z,16.60
2018-09-06T05:26:11.091Z,16.30
2018-09-06T05:28:37.543Z,16.20
2018-09-06T05:31:04.059Z,16.40
2018-09-06T05:33:30.529Z,16.30
2018-09-06T05:35:57.097Z,16.20
2018-09-06T05:38:23.802Z,16.20
2018-09-06T05:40:50.328Z,16.60
2018-09-06T05:43:16.853Z,16.80
2018-09-06T05:45:43.787Z,17.10
2018-09-06T05:48:10.377Z,17.40
2018-09-06T05:50:36.841Z,17.70
2018-09-06T05:53:03.339Z,17.80
2018-09-06T05:55:29.912Z,18.00
2018-09-06T05:57:56.481Z,18.00
2018-09-06T06:00:23.184Z,17.90
2018-09-06T06:02:49.655Z,18.00
2018-09-06T06:05:16.161Z,17.90
2018-09-06T06:07:43.848Z,17.90
2018-09-06T06:10:10.392Z,18.20
2018-09-06T06:12:36.917Z,18.60
2018-09-06T06:15:03.413Z,18.80
2018-09-06T06:17:29.850Z,18.90
2018-09-06T06:19:57.467Z,19.10
2018-09-06T06:22:24.224Z,19.20
2018-09-06T06:24:50.772Z,19.50
2018-09-06T06:27:17.328Z,19.20
2018-09-06T06:29:44.241Z,19.30
2018-09-06T06:32:10.793Z,19.20
2018-09-06T06:34:37.304Z,19.40
2018-09-06T06:37:03.777Z,19.60
2018-09-06T06:39:30.260Z,19.80
2018-09-06T06:41:56.836Z,19.70
2018-09-06T06:44:23.389Z,19.80
2018-09-06T06:46:49.878Z,19.80
2018-09-06T06:49:16.519Z,19.60
2018-09-06T06:51:42.985Z,19.80
2018-09-06T06:54:09.473Z,19.80
2018-09-06T06:56:35.972Z,19.80
2018-09-06T06:59:03.517Z,19.80
2018-09-06T07:01:29.966Z,19.90
2018-09-06T07:03:56.503Z,20.00
2018-09-06T07:06:23.269Z,20.00
2018-09-06T07:08:49.760Z,20.00
2018-09-06T07:11:16.238Z,20.00
2018-09-06T07:13:42.726Z,19.90
2018-09-06T07:16:09.325Z,19.80
2018-09-06T07:18:35.881Z,19.90
2018-09-06T07:21:02.556Z,20.20
2018-09-06T07:23:29.217Z,20.30
2018-09-06T07:25:55.678Z,20.60
2018-09-06T07:28:22.225Z,20.60
2018-09-06T07:30:48.701Z,20.70
2018-09-06T07:33:15.229Z,20.10
2018-09-06T07:35:41.947Z,20.30
2018-09-06T07:38:08.447Z,20.30
2018-09-06T07:40:34.913Z,20.50
2018-09-06T07:43:01.390Z,20.80
2018-09-06T07:45:28.019Z,21.00
2018-09-06T07:47:54.492Z,21.10
2018-09-06T07:50:21.013Z,21.20
2018-09-06T07:52:47.541Z,20.90
2018-09-06T07:55:15.096Z,21.00
2018-09-06T07:57:42.566Z,21.40
2018-09-06T08:00:09.174Z,21.90
2018-09-06T08:02:35.647Z,21.70
2018-09-06T08:05:03.602Z,22.00
2018-09-06T08:07:30.118Z,22.30
2018-09-06T08:09:56.610Z,21.80
2018-09-06T08:12:23.129Z,22.30
2018-09-06T08:14:49.582Z,22.30
2018-09-06T08:17:16.095Z,22.70
2018-09-06T08:19:42.607Z,22.40
2018-09-06T08:22:09.066Z,22.70
2018-09-06T08:24:35.528Z,22.90
2018-09-06T08:27:02.502Z,23.00
2018-09-06T08:29:29.125Z,22.80
2018-09-06T08:31:55.826Z,22.80
2018-09-06T08:34:22.442Z,23.30
2018-09-06T08:36:48.934Z,23.40
2018-09-06T08:39:15.618Z,23.50
2018-09-06T08:41:42.080Z,23.50
2018-09-06T08:44:08.571Z,23.40
2018-09-06T08:46:35.032Z,23.10
2018-09-06T08:49:01.548Z,22.80
2018-09-06T08:51:27.986Z,22.90
2018-09-06T08:53:54.423Z,23.40
2018-09-06T08:56:20.920Z,23.50
2018-09-06T08:58:47.448Z,24.00
2018-09-06T09:01:13.966Z,24.10
2018-09-06T09:03:40.526Z,24.20
2018-09-06T09:06:07.065Z,24.00
2018-09-06T09:08:33.778Z,24.30
2018-09-06T09:11:04.044Z,24.40
2018-09-06T09:13:30.548Z,24.70
2018-09-06T09:15:57.008Z,24.80
2018-09-06T09:18:23.561Z,24.60
2018-09-06T09:20:50.244Z,24.50
2018-09-06T09:23:16.759Z,24.70
2018-09-06T09:25:43.212Z,24.80
2018-09-06T09:28:09.765Z,25.20
2018-09-06T09:30:36.625Z,25.20
2018-09-06T09:33:03.578Z,25.20
2018-09-06T09:35:30.210Z,25.30
2018-09-06T09:37:56.699Z,25.60
2018-09-06T09:40:23.194Z,26.00
2018-09-06T09:42:50.661Z,26.30
2018-09-06T09:45:18.141Z,25.80
2018-09-06T09:47:45.602Z,26.10
2018-09-06T09:52:37.773Z,25.40
2018-09-06T09:55:04.284Z,25.90
2018-09-06T09:57:30.757Z,26.10
2018-09-06T09:59:57.226Z,26.20
2018-09-06T10:02:23.687Z,26.30
2018-09-06T10:04:50.491Z,26.30
2018-09-06T10:07:17.164Z,26.00
2018-09-06T10:09:46.904Z,25.90
2018-09-06T10:12:13.440Z,25.60
2018-09-06T10:14:39.917Z,26.20
2018-09-06T10:19:38.264Z,26.10
2018-09-06T10:24:37.883Z,26.60
2018-09-06T10:29:41.699Z,26.60
2018-09-06T10:32:09.316Z,27.00
2018-09-06T10:34:36.305Z,27.10
2018-09-06T10:37:04.894Z,27.00
2018-09-06T10:39:31.853Z,26.40
2018-09-06T10:41:59.837Z,26.40
2018-09-06T10:47:00.265Z,26.50
2018-09-06T10:49:28.398Z,26.10
2018-09-06T10:51:56.251Z,26.20
2018-09-06T10:54:23.244Z,26.80
2018-09-06T10:56:51.673Z,26.80
2018-09-06T10:59:19.819Z,27.30
2018-09-06T11:01:46.373Z,27.30
2018-09-06T11:04:14.005Z,27.30
2018-09-06T11:06:40.973Z,27.20
2018-09-06T11:09:07.923Z,27.10
2018-09-06T11:11:35.776Z,27.40
2018-09-06T11:14:03.495Z,27.70
2018-09-06T11:16:34.462Z,28.20
2018-09-06T11:19:01.982Z,28.00
2018-09-06T11:21:28.522Z,27.70
2018-09-06T11:26:27.084Z,28.10
2018-09-06T11:28:53.990Z,28.00
2018-09-06T11:31:21.968Z,27.60
2018-09-06T11:36:21.284Z,27.40
2018-09-06T11:38:52.179Z,27.90
2018-09-06T11:43:51.029Z,27.40
2018-09-06T11:46:19.940Z,27.70
2018-09-06T11:48:46.891Z,27.60
2018-09-06T11:51:13.823Z,28.30
2018-09-06T11:53:40.680Z,28.50
2018-09-06T11:58:39.175Z,27.90
2018-09-06T12:01:07.962Z,27.80
2018-09-06T12:03:34.961Z,28.20
2018-09-06T12:06:01.836Z,27.90
2018-09-06T12:08:29.174Z,27.30
2018-09-06T12:10:56.590Z,27.40
2018-09-06T12:13:24.850Z,27.70
2018-09-06T12:15:52.225Z,27.80
2018-09-06T12:18:19.777Z,27.90
2018-09-06T12:20:46.953Z,27.90
2018-09-06T12:23:13.838Z,28.10
2018-09-06T12:25:40.935Z,28.50
2018-09-06T12:28:08.062Z,28.00
2018-09-06T12:30:35.036Z,27.40
2018-09-06T12:33:03.331Z,27.60
2018-09-06T12:35:31.563Z,28.00
2018-09-06T12:37:58.502Z,28.60
2018-09-06T12:40:25.883Z,28.60
2018-09-06T12:42:53.164Z,28.70
2018-09-06T12:47:47.001Z,28.40
2018-09-06T12:50:13.890Z,28.20
2018-09-06T12:52:40.937Z,28.60
2018-09-06T12:55:07.909Z,28.70
2018-09-06T12:57:34.870Z,28.60
2018-09-06T13:00:01.885Z,28.60
2018-09-06T13:02:28.820Z,28.30
2018-09-06T13:04:56.096Z,28.60
2018-09-06T13:07:23.006Z,28.80
2018-09-06T13:09:50.847Z,29.00
2018-09-06T13:12:17.919Z,29.00
2018-09-06T13:14:44.955Z,28.60
2018-09-06T13:19:43.907Z,28.00
2018-09-06T13:22:11.349Z,28.20
2018-09-06T13:24:38.736Z,28.10
2018-09-06T13:27:06.701Z,27.80
2018-09-06T13:29:34.011Z,27.70
2018-09-06T13:32:00.969Z,27.90
2018-09-06T13:34:27.924Z,28.20
2018-09-06T13:36:55.814Z,28.70
2018-09-06T13:39:22.950Z,28.70
2018-09-06T13:41:51.045Z,28.70
2018-09-06T13:44:18.166Z,28.20
2018-09-06T13:46:45.308Z,28.60
2018-09-06T13:49:12.656Z,28.20
2018-09-06T13:51:40.000Z,28.30
2018-09-06T13:54:08.411Z,28.20
2018-09-06T13:56:35.331Z,28.90
2018-09-06T13:59:03.028Z,29.10
2018-09-06T14:01:30.342Z,29.50
2018-09-06T14:03:57.392Z,29.30
2018-09-06T14:06:24.302Z,29.40
2018-09-06T14:08:52.080Z,28.60
2018-09-06T14:11:19.018Z,28.50
2018-09-06T14:13:46.055Z,28.60
2018-09-06T14:16:13.063Z,28.80
2018-09-06T14:18:40.213Z,28.90
2018-09-06T14:21:07.899Z,28.30
2018-09-06T14:23:38.278Z,28.10
2018-09-06T14:26:04.835Z,28.30
2018-09-06T14:28:32.262Z,28.50
2018-09-06T14:31:00.003Z,28.30
2018-09-06T14:33:27.867Z,28.20
2018-09-06T14:35:56.814Z,28.20
2018-09-06T14:38:23.329Z,28.30
2018-09-06T14:40:50.809Z,28.30
2018-09-06T14:43:17.745Z,28.10
2018-09-06T14:45:45.525Z,28.00
2018-09-06T14:48:11.997Z,27.80
2018-09-06T14:50:39.881Z,28.20
2018-09-06T14:53:08.771Z,28.20
2018-09-06T14:55:36.780Z,28.10
2018-09-06T14:58:04.661Z,27.50
2018-09-06T15:00:33.444Z,27.90
2018-09-06T15:03:01.438Z,27.80
2018-09-06T15:05:30.197Z,27.80
2018-09-06T15:10:29.245Z,27.90
2018-09-06T15:12:57.017Z,27.90
2018-09-06T15:15:25.909Z,28.10
2018-09-06T15:17:53.097Z,28.50
2018-09-06T15:20:21.379Z,28.50
2018-09-06T15:22:49.300Z,28.60
2018-09-06T15:25:17.995Z,28.50
2018-09-06T15:27:48.332Z,28.30
2018-09-06T15:30:15.444Z,28.20
2018-09-06T15:32:42.621Z,28.20
2018-09-06T15:35:11.027Z,28.30
2018-09-06T15:37:38.857Z,28.30
2018-09-06T15:40:05.795Z,27.80
2018-09-06T15:42:32.705Z,27.90
2018-09-06T15:45:00.705Z,27.90
2018-09-06T15:47:28.367Z,28.30
2018-09-06T15:49:55.422Z,28.00
2018-09-06T15:52:22.501Z,27.50
2018-09-06T15:54:49.424Z,27.50
2018-09-06T15:57:18.445Z,27.30
2018-09-06T15:59:45.470Z,27.20
2018-09-06T16:02:14.109Z,27.20
2018-09-06T16:04:42.213Z,27.20
2018-09-06T16:07:09.235Z,27.30
2018-09-06T16:09:36.209Z,27.00
2018-09-06T16:12:04.153Z,27.00
2018-09-06T16:14:31.151Z,27.10
2018-09-06T16:16:59.198Z,27.00
2018-09-06T16:19:27.376Z,26.70
2018-09-06T16:21:55.509Z,26.90
2018-09-06T16:24:23.127Z,27.10
2018-09-06T16:26:50.582Z,27.10
2018-09-06T16:29:17.821Z,27.20
2018-09-06T16:31:44.995Z,26.60
2018-09-06T16:34:12.825Z,26.40
2018-09-06T16:36:39.895Z,26.50
2018-09-06T16:39:07.002Z,26.50
2018-09-06T16:41:34.956Z,26.60
2018-09-06T16:44:02.118Z,26.40
2018-09-06T16:46:29.940Z,26.20
2018-09-06T16:48:57.750Z,26.40
2018-09-06T16:51:24.882Z,26.40
2018-09-06T16:53:51.891Z,26.00
2018-09-06T16:56:19.069Z,25.70
2018-09-06T16:58:47.885Z,25.20
2018-09-06T17:01:15.102Z,25.40
2018-09-06T17:03:42.236Z,25.40
2018-09-06T17:06:09.371Z,25.50
2018-09-06T17:08:37.513Z,25.40
2018-09-06T17:11:05.446Z,25.40
2018-09-06T17:13:32.630Z,25.40
2018-09-06T17:15:59.643Z,25.40
2018-09-06T17:18:27.432Z,25.10
2018-09-06T17:20:55.003Z,24.60
2018-09-06T17:25:54.299Z,24.10
2018-09-06T17:30:53.685Z,23.90
2018-09-06T17:33:20.976Z,23.80
2018-09-06T17:35:48.393Z,23.60
2018-09-06T17:38:17.371Z,23.50
2018-09-06T17:40:49.098Z,23.60
2018-09-06T17:43:16.075Z,23.60
2018-09-06T17:45:43.402Z,23.90
2018-09-06T17:48:10.021Z,23.70
2018-09-06T17:50:36.674Z,23.80
2018-09-06T17:53:03.693Z,23.70
2018-09-06T17:55:30.229Z,23.50
2018-09-06T17:57:58.573Z,23.50
2018-09-06T18:00:27.496Z,23.20
2018-09-06T18:02:54.549Z,23.20
2018-09-06T18:05:22.371Z,23.20
2018-09-06T18:10:23.792Z,23.20
2018-09-06T18:12:50.778Z,23.30
2018-09-06T18:15:18.432Z,23.20
2018-09-06T18:17:45.677Z,23.00
2018-09-06T18:20:12.451Z,22.70
2018-09-06T18:25:11.074Z,22.40
2018-09-06T18:27:39.565Z,22.40
2018-09-06T18:30:08.234Z,22.60
2018-09-06T18:32:36.146Z,22.70
2018-09-06T18:35:03.472Z,22.70
2018-09-06T18:37:30.970Z,22.00
2018-09-06T18:39:58.208Z,22.40
2018-09-06T18:42:25.364Z,22.60
2018-09-06T18:47:23.549Z,22.40
2018-09-06T18:49:51.944Z,22.30
2018-09-06T18:52:18.881Z,22.40
2018-09-06T18:57:19.961Z,22.40
2018-09-06T18:59:49.625Z,22.20
2018-09-06T19:04:50.396Z,22.30
2018-09-06T19:07:19.893Z,22.10
2018-09-06T19:09:47.974Z,22.00
2018-09-06T19:12:17.059Z,22.00
2018-09-06T19:14:44.051Z,22.00
2018-09-06T19:17:12.010Z,22.00
2018-09-06T19:19:39.307Z,22.00
2018-09-06T19:22:07.927Z,22.00
2018-09-06T19:24:35.636Z,21.90
2018-09-06T19:29:49.251Z,21.50
2018-09-06T19:32:17.018Z,21.60
2018-09-06T19:34:45.055Z,21.50
2018-09-06T19:37:13.025Z,21.60
2018-09-06T19:39:43.158Z,21.60
2018-09-06T19:42:16.975Z,21.80
2018-09-06T19:44:46.819Z,21.80
2018-09-06T19:47:17.104Z,21.80
2018-09-06T19:49:44.956Z,21.50
2018-09-06T19:54:48.329Z,21.70
2018-09-06T19:57:16.812Z,21.70
2018-09-06T19:59:51.258Z,21.60
2018-09-06T20:04:50.133Z,21.60
2018-09-06T20:07:18.521Z,21.60
2018-09-06T20:12:21.020Z,21.40
2018-09-06T20:14:52.465Z,21.60
2018-09-06T20:17:21.406Z,21.60
2018-09-06T20:19:48.807Z,21.70
2018-09-06T20:22:20.928Z,21.70
2018-09-06T20:29:59.126Z,21.40
2018-09-06T20:32:30.274Z,21.30
2018-09-06T20:34:57.358Z,21.20
2018-09-06T20:37:28.651Z,21.40
2018-09-06T20:39:58.818Z,21.50
2018-09-06T20:42:26.066Z,21.50
2018-09-06T20:44:57.318Z,21.60
2018-09-06T20:47:26.110Z,21.30
2018-09-06T20:49:53.174Z,21.00
2018-09-06T20:52:21.598Z,20.80
2018-09-06T20:58:48.683Z,21.30
2018-09-06T21:01:20.211Z,21.30
2018-09-06T21:03:50.040Z,21.00
2018-09-06T21:06:21.936Z,21.20
2018-09-06T21:08:52.698Z,21.30
2018-09-06T21:11:21.490Z,21.40
2018-09-06T21:18:56.589Z,20.80
2018-09-06T21:21:25.410Z,21.10
2018-09-06T21:23:55.873Z,21.20
2018-09-06T21:26:28.247Z,21.20
2018-09-06T21:29:06.092Z,21.00
2018-09-06T21:31:36.965Z,21.10
2018-09-06T21:34:06.684Z,21.20
2018-09-06T21:36:35.696Z,21.30
2018-09-06T21:39:04.162Z,21.40
2018-09-06T21:41:35.686Z,21.30
2018-09-06T21:44:11.312Z,21.40
2018-09-06T21:49:09.864Z,21.10
2018-09-06T21:51:37.011Z,20.80
2018-09-06T22:01:45.390Z,20.70
2018-09-06T22:04:17.033Z,20.60
2018-09-06T22:06:44.536Z,20.70
2018-09-06T22:09:12.367Z,20.80
2018-09-06T22:14:12.657Z,20.80
2018-09-06T22:16:39.388Z,20.90
2018-09-06T22:19:10.767Z,20.90
2018-09-06T22:21:39.434Z,20.80
2018-09-06T22:24:07.374Z,20.60
2018-09-06T22:26:36.239Z,20.50
2018-09-06T22:29:04.141Z,20.60
2018-09-06T22:31:31.351Z,20.60
2018-09-06T22:33:59.680Z,20.40
2018-09-06T22:36:32.105Z,20.50
2018-09-06T22:39:01.180Z,20.50
2018-09-06T22:44:00.844Z,20.60
2018-09-06T22:46:28.699Z,20.30
2018-09-06T22:49:01.270Z,20.40
2018-09-06T22:56:35.962Z,20.10
2018-09-06T22:59:04.216Z,20.10
2018-09-06T23:01:33.322Z,20.20
2018-09-06T23:04:00.180Z,20.30
2018-09-06T23:06:27.677Z,20.10
2018-09-06T23:09:00.163Z,20.20
2018-09-06T23:11:28.070Z,20.00
2018-09-06T23:13:56.109Z,20.00
2018-09-06T23:18:55.783Z,20.00
2018-09-06T23:21:24.084Z,19.80
2018-09-06T23:23:51.834Z,19.90
2018-09-06T23:26:20.361Z,19.80
2018-09-06T23:28:46.976Z,19.80
2018-09-06T23:31:17.241Z,19.80
2018-09-06T23:33:44.408Z,19.90
2018-09-06T23:38:45.855Z,19.90
2018-09-06T23:41:13.150Z,19.90
2018-09-06T23:43:41.585Z,19.90
2018-09-06T23:48:41.843Z,19.70
2018-09-06T23:51:09.831Z,19.80
2018-09-06T23:53:37.225Z,19.80
2018-09-06T23:58:39.635Z,20.00
